Terminal Aerodrome Forecast
Issued by NWS Louisville, KY

Home | Current Version | Previous Version | Graphics & Text | Print | Product List | Glossary On
Versions: 1 2 3 4 5 6 7 8 9 10 11 12 13 14 15
000
FTUS43 KLMK 201100
TAFSDF
TAF
KSDF 201139Z 2012/2118 17005KT P6SM -SHRA BKN090
     FM201400 21010KT P6SM VCSH SCT035 BKN050
     FM202300 VRB05KT P6SM BKN035=

USA.gov is the U.S. government's official web portal to all federal, state and local government web resources and services.